Time;durP1;ratioP1;P1;durP2;ratioP2;P2;SDS_P1;SDS_P2;PMS_P1;PMS_P2;Temp;Humidity;BMP_temperature;BMP_pressure;BME280_temperature;BME280_humidity;BME280_pressure;Samples;Min_cycle;Max_cycle;Signal;HPM_P1;HPM_P2
2022/07/16 00:01:26;;;;;;;11.03;4.20;;;18.80;13.10;;;;;;5059903;28;20470;-75
2022/07/16 00:03:55;;;;;;;8.40;3.30;;;18.80;13.00;;;;;;5066338;28;20622;-75
2022/07/16 00:06:24;;;;;;;8.50;2.47;;;18.80;13.00;;;;;;5062995;28;20474;-75
2022/07/16 00:08:51;;;;;;;5.20;3.13;;;18.80;12.90;;;;;;5049889;28;20469;-75
2022/07/16 00:11:19;;;;;;;7.73;3.13;;;18.70;12.80;;;;;;5068082;28;20476;-75
2022/07/16 00:13:47;;;;;;;6.07;2.80;;;18.70;13.20;;;;;;5067181;28;20461;-75
2022/07/16 00:16:14;;;;;;;8.20;3.23;;;18.60;13.00;;;;;;5037424;28;20485;-75
2022/07/16 00:21:28;;;;;;;7.07;3.30;;;18.50;13.20;;;;;;5048485;28;21005;-75
2022/07/16 00:23:54;;;;;;;8.20;3.00;;;18.50;13.20;;;;;;5047345;28;20730;-75
2022/07/16 00:26:21;;;;;;;5.80;3.50;;;18.50;13.30;;;;;;5055345;28;20481;-75
2022/07/16 00:28:48;;;;;;;6.37;3.10;;;18.50;13.30;;;;;;5050528;28;20451;-75
2022/07/16 00:31:15;;;;;;;6.90;3.20;;;18.60;13.30;;;;;;5040607;28;21018;-75
2022/07/16 00:33:42;;;;;;;7.07;4.00;;;18.50;13.20;;;;;;5067414;28;20992;-74
2022/07/16 00:36:09;;;;;;;6.80;3.57;;;18.50;13.30;;;;;;5067326;28;20479;-75
2022/07/16 00:38:37;;;;;;;7.83;4.20;;;18.50;13.50;;;;;;5061842;28;20472;-75
2022/07/16 00:41:04;;;;;;;6.37;3.50;;;18.50;13.80;;;;;;5049167;28;20461;-75
2022/07/16 00:43:44;;;;;;;7.27;4.37;;;18.50;13.90;;;;;;5047725;28;20464;-75
2022/07/16 00:46:11;;;;;;;7.43;3.90;;;18.40;13.80;;;;;;5047546;28;20486;-75
2022/07/16 00:48:37;;;;;;;6.47;3.73;;;18.40;13.70;;;;;;5047362;28;20462;-75
2022/07/16 00:51:05;;;;;;;7.67;3.40;;;18.40;13.60;;;;;;5049652;28;20472;-75
2022/07/16 00:53:32;;;;;;;6.80;3.73;;;18.30;13.60;;;;;;5057125;28;20466;-75
2022/07/16 00:56:00;;;;;;;5.30;2.90;;;18.30;13.80;;;;;;5046818;28;20490;-75
2022/07/16 00:58:27;;;;;;;5.63;3.30;;;18.30;13.80;;;;;;5047417;28;20477;-75
2022/07/16 01:00:54;;;;;;;5.50;3.43;;;18.30;13.90;;;;;;5043855;28;20492;-75
2022/07/16 01:03:21;;;;;;;8.00;3.27;;;18.20;14.30;;;;;;5061549;28;20461;-75
2022/07/16 01:05:47;;;;;;;12.77;3.80;;;18.10;14.50;;;;;;5057495;28;21005;-75
2022/07/16 01:08:15;;;;;;;7.10;3.77;;;18.00;14.60;;;;;;5047286;28;20464;-75
2022/07/16 01:10:41;;;;;;;5.83;3.40;;;17.90;14.50;;;;;;5048730;28;20835;-75
2022/07/16 01:13:10;;;;;;;6.80;3.27;;;17.80;14.70;;;;;;5050936;28;20466;-75
2022/07/16 01:15:37;;;;;;;5.23;2.83;;;17.80;14.50;;;;;;5050822;28;20488;-74
2022/07/16 01:18:04;;;;;;;7.63;3.90;;;17.70;14.70;;;;;;5051581;28;20481;-75
2022/07/16 01:20:31;;;;;;;9.00;3.67;;;17.60;14.70;;;;;;5051297;28;20480;-75
2022/07/16 01:22:58;;;;;;;9.43;3.50;;;17.50;15.10;;;;;;5054656;28;20469;-74
2022/07/16 01:25:27;;;;;;;6.93;3.70;;;17.40;15.60;;;;;;5059730;28;20478;-74
2022/07/16 01:27:54;;;;;;;5.70;3.00;;;17.40;15.80;;;;;;5050515;28;20457;-74
2022/07/16 01:30:21;;;;;;;8.67;4.00;;;17.30;16.10;;;;;;5063722;28;20964;-74
2022/07/16 01:32:48;;;;;;;12.23;4.57;;;17.30;16.10;;;;;;5053595;28;20469;-74
2022/07/16 01:35:14;;;;;;;6.10;3.70;;;17.20;16.20;;;;;;5068910;28;20488;-74
2022/07/16 01:37:41;;;;;;;5.73;3.33;;;17.20;16.50;;;;;;5050427;28;20485;-75
2022/07/16 01:40:09;;;;;;;6.60;4.40;;;17.10;16.50;;;;;;5053928;28;20472;-75
2022/07/16 01:42:37;;;;;;;7.33;3.90;;;17.00;16.70;;;;;;5053184;28;20450;-75
2022/07/16 01:45:04;;;;;;;6.70;3.53;;;16.90;17.00;;;;;;5059473;28;20478;-74
2022/07/16 01:47:31;;;;;;;6.13;3.83;;;16.90;17.10;;;;;;5051355;28;20460;-74
2022/07/16 01:49:58;;;;;;;9.40;3.77;;;16.80;17.40;;;;;;5064002;28;20465;-74
2022/07/16 01:52:25;;;;;;;10.13;4.20;;;16.70;17.60;;;;;;5054100;28;20876;-74
2022/07/16 01:54:53;;;;;;;8.10;4.67;;;16.60;17.80;;;;;;5050541;28;20478;-74
2022/07/16 01:57:21;;;;;;;11.23;4.07;;;16.50;18.20;;;;;;5050146;28;20482;-74
2022/07/16 01:59:49;;;;;;;6.47;4.20;;;16.40;18.30;;;;;;5050498;28;20941;-74
2022/07/16 02:02:16;;;;;;;7.27;5.00;;;16.30;18.70;;;;;;5053861;28;20476;-74
2022/07/16 02:04:43;;;;;;;9.60;4.87;;;16.20;18.80;;;;;;5069847;28;20473;-74
2022/07/16 02:07:10;;;;;;;10.10;4.67;;;16.10;19.30;;;;;;5055840;28;20466;-74
2022/07/16 02:09:37;;;;;;;7.27;4.63;;;15.90;19.60;;;;;;5050890;28;20477;-74
2022/07/16 02:12:05;;;;;;;5.93;4.27;;;15.90;19.60;;;;;;5060345;28;20454;-75
2022/07/16 02:14:31;;;;;;;6.93;4.50;;;15.90;19.70;;;;;;5052343;28;20453;-74
2022/07/16 02:17:00;;;;;;;11.00;4.90;;;15.80;19.90;;;;;;5070026;28;20841;-74
2022/07/16 02:19:27;;;;;;;7.83;4.70;;;15.80;20.10;;;;;;5058250;28;20500;-74
2022/07/16 02:21:54;;;;;;;9.43;5.70;;;15.70;20.30;;;;;;5048777;28;20947;-74
2022/07/16 02:24:20;;;;;;;7.70;5.03;;;15.70;20.10;;;;;;5049574;28;20466;-74
2022/07/16 02:26:47;;;;;;;7.37;4.97;;;15.80;20.20;;;;;;5049722;28;20703;-74
2022/07/16 02:29:14;;;;;;;6.80;4.50;;;15.80;20.10;;;;;;5037083;28;20954;-74
2022/07/16 02:31:41;;;;;;;7.23;4.57;;;15.80;20.10;;;;;;5059107;28;20560;-74
2022/07/16 02:34:09;;;;;;;6.80;4.30;;;15.80;20.00;;;;;;5069660;28;20461;-74
2022/07/16 02:36:36;;;;;;;7.00;5.00;;;15.70;20.50;;;;;;5068983;28;20481;-74
2022/07/16 02:39:03;;;;;;;9.83;6.10;;;15.70;20.60;;;;;;5067790;28;20496;-74
2022/07/16 02:41:30;;;;;;;8.20;4.63;;;15.70;20.40;;;;;;5052033;28;20468;-74
2022/07/16 02:43:57;;;;;;;8.97;4.73;;;15.70;20.80;;;;;;5052847;28;20462;-74
2022/07/16 02:46:24;;;;;;;7.30;4.67;;;15.60;20.90;;;;;;5049458;28;20489;-74
2022/07/16 02:48:51;;;;;;;12.50;5.53;;;15.60;21.00;;;;;;5063696;28;20461;-74
2022/07/16 02:51:19;;;;;;;9.03;5.37;;;15.70;21.40;;;;;;5052025;28;20489;-74
2022/07/16 02:53:46;;;;;;;8.33;5.07;;;15.70;21.30;;;;;;5067628;28;20993;-74
2022/07/16 02:56:12;;;;;;;7.27;5.60;;;15.70;21.00;;;;;;5053679;28;20477;-74
2022/07/16 02:58:39;;;;;;;9.93;4.90;;;15.70;21.10;;;;;;5065555;28;20492;-74
2022/07/16 03:01:06;;;;;;;6.53;4.70;;;15.60;21.30;;;;;;5055038;28;20854;-74
2022/07/16 03:03:33;;;;;;;7.40;5.13;;;15.50;21.40;;;;;;5062623;28;20457;-74
2022/07/16 03:06:01;;;;;;;8.20;5.00;;;15.50;21.60;;;;;;5056322;28;20487;-74
2022/07/16 03:08:29;;;;;;;9.10;5.47;;;15.40;21.80;;;;;;5068678;28;20461;-74
2022/07/16 03:10:56;;;;;;;8.60;6.07;;;15.40;21.80;;;;;;5058476;28;20466;-74
2022/07/16 03:13:23;;;;;;;8.73;4.83;;;15.40;21.70;;;;;;5055450;28;20467;-75
2022/07/16 03:15:50;;;;;;;14.43;5.97;;;15.40;21.60;;;;;;5068704;28;20487;-74
2022/07/16 03:18:17;;;;;;;9.20;5.30;;;15.40;21.90;;;;;;5062402;28;20489;-74
2022/07/16 03:20:44;;;;;;;7.70;5.27;;;15.30;22.00;;;;;;5048585;28;20461;-75
2022/07/16 03:23:11;;;;;;;8.40;5.20;;;15.40;22.00;;;;;;5047352;28;20895;-74
2022/07/16 03:25:41;;;;;;;9.10;5.67;;;15.40;22.20;;;;;;5048005;28;20482;-75
2022/07/16 03:28:08;;;;;;;9.33;5.10;;;15.30;22.40;;;;;;5050278;28;20931;-74
2022/07/16 03:30:34;;;;;;;7.80;5.13;;;15.30;22.50;;;;;;5048125;28;20466;-75
2022/07/16 03:33:01;;;;;;;8.40;5.57;;;15.20;22.60;;;;;;5046913;28;20454;-75
2022/07/16 03:35:29;;;;;;;7.77;5.83;;;15.20;22.40;;;;;;5047801;28;21029;-75
2022/07/16 03:40:41;;;;;;;7.40;5.10;;;15.20;22.60;;;;;;5053816;28;20468;-75
2022/07/16 03:43:08;;;;;;;8.27;5.00;;;15.20;22.50;;;;;;5046517;28;20954;-75
2022/07/16 03:45:35;;;;;;;8.07;5.27;;;15.30;22.60;;;;;;5058519;28;20489;-75
2022/07/16 03:48:02;;;;;;;8.90;4.67;;;15.20;22.40;;;;;;5068486;28;20458;-75
2022/07/16 03:50:28;;;;;;;7.30;5.60;;;15.20;22.70;;;;;;5068436;28;20491;-75
2022/07/16 03:52:55;;;;;;;10.70;5.90;;;15.20;22.60;;;;;;5067947;28;20471;-75
2022/07/16 03:55:22;;;;;;;8.57;5.40;;;15.20;22.70;;;;;;5047166;28;20482;-75
2022/07/16 03:57:50;;;;;;;9.90;5.80;;;15.20;22.90;;;;;;5047931;28;20478;-75
2022/07/16 04:00:17;;;;;;;8.80;4.90;;;15.20;22.80;;;;;;5047620;28;20462;-75
2022/07/16 04:02:44;;;;;;;10.47;5.80;;;15.20;22.80;;;;;;5047507;28;20477;-75
2022/07/16 04:05:10;;;;;;;7.87;5.37;;;15.20;22.70;;;;;;5046751;28;20486;-74
2022/07/16 04:07:37;;;;;;;7.50;5.50;;;15.20;22.80;;;;;;5048098;28;20458;-75
2022/07/16 04:10:05;;;;;;;12.20;6.10;;;15.20;23.10;;;;;;5048112;28;20461;-75
2022/07/16 04:12:32;;;;;;;8.63;6.40;;;15.20;22.90;;;;;;5048122;28;20465;-75
2022/07/16 04:15:01;;;;;;;9.57;5.87;;;15.20;22.90;;;;;;5048498;28;20565;-75
2022/07/16 04:17:28;;;;;;;7.57;5.60;;;15.30;22.90;;;;;;5061973;28;20461;-75
2022/07/16 04:19:55;;;;;;;9.77;5.80;;;15.40;22.70;;;;;;5065466;28;20457;-75
2022/07/16 04:22:22;;;;;;;8.83;6.50;;;15.50;22.70;;;;;;5034490;28;21157;-75
2022/07/16 04:24:48;;;;;;;9.97;5.50;;;15.50;22.40;;;;;;5046849;28;20996;-75
2022/07/16 04:27:15;;;;;;;7.67;4.83;;;15.60;22.50;;;;;;5052085;28;20461;-75
2022/07/16 04:29:42;;;;;;;8.10;5.37;;;15.60;22.40;;;;;;5063545;28;20479;-75
2022/07/16 04:32:10;;;;;;;6.73;5.30;;;15.60;22.50;;;;;;5067377;28;20473;-75
2022/07/16 04:34:37;;;;;;;6.97;5.00;;;15.60;22.60;;;;;;5058507;28;20472;-75
2022/07/16 04:37:04;;;;;;;8.27;5.20;;;16.10;22.70;;;;;;5047698;28;20466;-75
2022/07/16 04:39:30;;;;;;;11.47;5.53;;;16.80;21.00;;;;;;5041708;28;20482;-75
2022/07/16 04:41:57;;;;;;;8.03;5.37;;;17.80;19.30;;;;;;5047434;28;20986;-75
2022/07/16 04:44:24;;;;;;;10.37;5.00;;;18.60;17.60;;;;;;5046479;28;20499;-75
2022/07/16 04:46:51;;;;;;;9.67;4.67;;;19.30;16.20;;;;;;5051390;28;20841;-75
2022/07/16 04:49:19;;;;;;;7.67;5.20;;;19.40;15.70;;;;;;5051676;28;20453;-75
2022/07/16 04:51:46;;;;;;;11.60;5.20;;;19.40;15.50;;;;;;5051543;28;20977;-75
2022/07/16 04:54:13;;;;;;;8.20;4.63;;;19.30;15.40;;;;;;5050908;28;20460;-75
2022/07/16 04:56:40;;;;;;;7.50;4.83;;;18.90;15.90;;;;;;5050660;28;20482;-75
2022/07/16 04:59:06;;;;;;;10.97;5.37;;;19.00;17.10;;;;;;5071434;28;21050;-75
2022/07/16 05:01:33;;;;;;;6.27;4.60;;;20.00;16.30;;;;;;5070973;28;20476;-75
2022/07/16 05:04:00;;;;;;;7.33;4.60;;;21.30;14.30;;;;;;5060506;28;20466;-75
2022/07/16 05:06:28;;;;;;;8.37;5.10;;;22.50;11.90;;;;;;5049459;28;20485;-75
2022/07/16 05:08:56;;;;;;;8.13;4.47;;;23.40;9.30;;;;;;5065298;28;20463;-75
2022/07/16 05:11:23;;;;;;;8.10;4.17;;;24.40;8.00;;;;;;5051007;28;20462;-75
2022/07/16 05:13:52;;;;;;;8.63;4.33;;;25.30;6.00;;;;;;5051194;28;20491;-75
2022/07/16 05:16:19;;;;;;;7.37;4.27;;;26.00;4.40;;;;;;5049620;28;20524;-76
2022/07/16 05:18:46;;;;;;;7.07;4.77;;;26.90;3.60;;;;;;5054521;28;21005;-75
2022/07/16 05:21:12;;;;;;;6.37;4.30;;;27.90;1.70;;;;;;5069252;28;20461;-76
2022/07/16 05:23:41;;;;;;;5.13;3.57;;;28.50;1.00;;;;;;5070216;28;20457;-76
2022/07/16 05:26:08;;;;;;;9.33;4.53;;;29.30;1.00;;;;;;5051758;28;20488;-76
2022/07/16 05:28:34;;;;;;;6.37;4.53;;;29.90;1.00;;;;;;5050697;28;20454;-76
2022/07/16 05:31:01;;;;;;;7.30;4.00;;;30.60;1.00;;;;;;5069183;28;20473;-76
2022/07/16 05:33:28;;;;;;;6.10;4.43;;;31.20;1.00;;;;;;5062878;28;20848;-76
2022/07/16 05:35:55;;;;;;;7.40;4.50;;;31.90;1.00;;;;;;5054553;28;20488;-76
2022/07/16 05:38:22;;;;;;;8.13;4.20;;;32.60;1.00;;;;;;5053305;28;20488;-76
2022/07/16 05:40:50;;;;;;;7.43;3.90;;;33.10;1.00;;;;;;5050087;28;20473;-76
2022/07/16 05:43:17;;;;;;;8.60;4.47;;;33.60;1.00;;;;;;5064894;28;20461;-76
2022/07/16 05:45:43;;;;;;;7.33;3.87;;;34.40;1.00;;;;;;5060029;28;20562;-76
2022/07/16 05:48:10;;;;;;;8.67;3.87;;;35.10;1.00;;;;;;5057596;28;20480;-76
2022/07/16 05:50:37;;;;;;;9.23;4.30;;;35.80;1.00;;;;;;5065878;28;20461;-76
2022/07/16 05:53:04;;;;;;;8.60;3.80;;;36.50;1.00;;;;;;5060019;28;21008;-76
2022/07/16 05:55:30;;;;;;;6.60;3.47;;;37.00;1.00;;;;;;5053727;28;20993;-76
2022/07/16 05:57:59;;;;;;;8.00;4.13;;;37.40;1.00;;;;;;5066002;28;20826;-76
2022/07/16 06:00:25;;;;;;;6.80;3.50;;;37.90;1.00;;;;;;5062760;28;20514;-76
2022/07/16 06:02:53;;;;;;;6.23;3.53;;;38.40;1.00;;;;;;5037095;28;20469;-76
2022/07/16 06:05:19;;;;;;;9.33;3.83;;;39.00;1.00;;;;;;5049848;28;20486;-76
2022/07/16 06:07:46;;;;;;;5.10;3.30;;;39.30;1.00;;;;;;5050015;28;21033;-77
2022/07/16 06:10:13;;;;;;;6.10;3.37;;;40.00;1.00;;;;;;5049122;28;20466;-77
2022/07/16 06:12:40;;;;;;;8.60;3.40;;;40.50;1.00;;;;;;5059633;28;20471;-77
2022/07/16 06:15:10;;;;;;;7.37;3.80;;;41.00;1.00;;;;;;5066963;28;21027;-77
2022/07/16 06:17:37;;;;;;;5.80;3.33;;;41.70;1.00;;;;;;5050427;28;21019;-77
2022/07/16 06:20:05;;;;;;;8.23;3.80;;;42.30;1.00;;;;;;5047667;28;20489;-76
2022/07/16 06:22:32;;;;;;;6.60;3.63;;;42.70;1.00;;;;;;5067349;28;21007;-76
2022/07/16 06:24:59;;;;;;;5.80;3.20;;;43.00;1.00;;;;;;5057550;28;20474;-77
2022/07/16 06:27:26;;;;;;;5.07;3.40;;;43.20;1.00;;;;;;5060029;28;20737;-76
2022/07/16 06:29:53;;;;;;;6.57;3.10;;;43.60;1.00;;;;;;5053597;28;20974;-77
2022/07/16 06:32:21;;;;;;;5.10;2.57;;;43.80;1.00;;;;;;5046527;28;21012;-76
2022/07/16 06:34:48;;;;;;;5.77;2.60;;;44.30;1.00;;;;;;5049428;28;20606;-76
2022/07/16 06:37:15;;;;;;;4.60;2.17;;;44.40;1.00;;;;;;5048882;28;20454;-76
2022/07/16 06:39:43;;;;;;;4.77;2.10;;;44.70;1.00;;;;;;5048144;28;20777;-76
2022/07/16 06:42:10;;;;;;;5.10;1.80;;;44.80;1.00;;;;;;5048546;28;20458;-76
2022/07/16 06:44:39;;;;;;;5.57;2.20;;;44.90;1.00;;;;;;5047322;28;21007;-76
2022/07/16 06:47:06;;;;;;;4.77;2.17;;;45.00;1.00;;;;;;5045106;28;20466;-76
2022/07/16 06:49:34;;;;;;;4.37;2.43;;;45.20;1.00;;;;;;5049157;28;20484;-76
2022/07/16 06:52:01;;;;;;;4.10;2.20;;;45.60;1.00;;;;;;5043966;28;20477;-76
2022/07/16 06:54:28;;;;;;;4.30;2.20;;;46.20;1.00;;;;;;5051792;28;20463;-76
2022/07/16 06:56:54;;;;;;;6.60;2.10;;;46.90;1.00;;;;;;5045270;28;20990;-76
2022/07/16 06:59:21;;;;;;;5.00;2.10;;;47.70;1.00;;;;;;5042828;28;20489;-76
2022/07/16 07:01:48;;;;;;;5.90;2.60;;;48.10;1.00;;;;;;5044683;28;21185;-76
2022/07/16 07:04:15;;;;;;;4.53;2.23;;;48.30;1.00;;;;;;5044909;28;20466;-76
2022/07/16 07:06:43;;;;;;;4.00;2.40;;;48.40;1.00;;;;;;5044988;28;20474;-75
2022/07/16 07:09:10;;;;;;;7.40;2.80;;;49.00;1.00;;;;;;5047037;28;20458;-76
2022/07/16 07:12:23;;;;;;;4.17;1.93;;;49.50;1.00;;;;;;5049673;28;20470;-75
2022/07/16 07:14:50;;;;;;;6.73;2.30;;;50.00;1.00;;;;;;5045720;28;21002;-76
2022/07/16 07:17:16;;;;;;;4.57;2.20;;;50.30;1.00;;;;;;5044995;28;20466;-75
2022/07/16 07:19:43;;;;;;;5.03;2.70;;;50.00;1.00;;;;;;5047226;28;20490;-76
2022/07/16 07:22:11;;;;;;;4.47;2.37;;;50.20;1.00;;;;;;5051573;28;21225;-75
2022/07/16 07:24:38;;;;;;;5.10;2.10;;;50.80;1.00;;;;;;5044669;28;20963;-75
2022/07/16 07:27:05;;;;;;;5.33;2.50;;;50.70;1.00;;;;;;5044717;28;20466;-75
2022/07/16 07:29:32;;;;;;;3.90;2.13;;;50.60;1.00;;;;;;5044796;28;20524;-75
2022/07/16 07:31:59;;;;;;;4.63;2.13;;;51.10;1.00;;;;;;5044712;28;20485;-75
2022/07/16 07:34:26;;;;;;;4.93;2.57;;;51.50;1.00;;;;;;5044701;28;20462;-75
2022/07/16 07:36:52;;;;;;;4.60;2.30;;;51.60;1.00;;;;;;5046292;28;20466;-75
2022/07/16 07:39:21;;;;;;;4.63;2.80;;;51.90;1.00;;;;;;5044279;28;20473;-75
2022/07/16 07:41:47;;;;;;;4.33;2.13;;;52.40;1.00;;;;;;5039115;28;20490;-75
2022/07/16 07:44:14;;;;;;;5.00;2.73;;;53.00;1.00;;;;;;5046666;28;20457;-75
2022/07/16 07:46:41;;;;;;;5.73;2.83;;;53.00;1.00;;;;;;5043282;28;20856;-75
2022/07/16 07:49:10;;;;;;;7.50;2.60;;;52.80;1.00;;;;;;5044076;28;21302;-75
2022/07/16 07:51:37;;;;;;;6.20;2.10;;;52.30;1.00;;;;;;5045213;28;20553;-75
2022/07/16 07:54:04;;;;;;;4.00;2.20;;;52.20;1.00;;;;;;5046059;28;20458;-75
2022/07/16 07:56:32;;;;;;;5.97;2.03;;;52.00;1.00;;;;;;5042008;28;20584;-75
2022/07/16 07:58:59;;;;;;;4.10;2.03;;;52.60;1.00;;;;;;5046176;28;20481;-75
2022/07/16 08:01:28;;;;;;;4.40;2.27;;;53.30;1.00;;;;;;5044492;28;20484;-75
2022/07/16 08:03:55;;;;;;;4.77;2.40;;;54.00;1.00;;;;;;5044710;28;20537;-75
2022/07/16 08:06:21;;;;;;;3.77;1.97;;;54.60;1.00;;;;;;5042116;28;20491;-75
2022/07/16 08:08:48;;;;;;;4.83;2.00;;;55.20;1.00;;;;;;5046010;28;20465;-75
2022/07/16 08:11:15;;;;;;;4.80;2.50;;;55.80;1.00;;;;;;5045567;28;20984;-75
2022/07/16 08:13:43;;;;;;;4.50;1.90;;;56.20;1.00;;;;;;5044570;28;20492;-76
2022/07/16 08:16:10;;;;;;;3.80;1.80;;;56.40;1.00;;;;;;5042013;28;20484;-75
2022/07/16 08:18:37;;;;;;;4.80;2.20;;;56.70;1.00;;;;;;5047901;28;20461;-75
2022/07/16 08:21:03;;;;;;;4.30;2.40;;;57.00;1.00;;;;;;5054208;28;20465;-75
2022/07/16 08:26:14;;;;;;;4.03;2.33;;;57.60;1.00;;;;;;5047151;28;20452;-75
2022/07/16 08:28:44;;;;;;;3.97;2.30;;;57.70;1.00;;;;;;5046179;28;20196;-75
2022/07/16 08:31:13;;;;;;;4.27;2.20;;;57.80;1.00;;;;;;5065410;28;20236;-75
2022/07/16 08:33:40;;;;;;;5.33;2.77;;;58.00;1.00;;;;;;5052250;28;20207;-76
2022/07/16 08:36:07;;;;;;;3.88;2.53;;;58.10;1.00;;;;;;5047882;28;20853;-76
2022/07/16 08:38:34;;;;;;;3.80;2.30;;;58.40;1.00;;;;;;5046719;28;20196;-75
2022/07/16 08:41:03;;;;;;;5.72;2.10;;;58.60;1.00;;;;;;5056029;28;20562;-76
2022/07/16 08:43:30;;;;;;;5.38;2.55;;;58.30;1.00;;;;;;5066943;28;20689;-75
2022/07/16 08:45:58;;;;;;;4.13;2.10;;;58.50;1.00;;;;;;5055160;28;20229;-75
2022/07/16 08:48:26;;;;;;;5.43;2.22;;;58.60;1.00;;;;;;5047730;28;20221;-75
2022/07/16 08:50:54;;;;;;;5.18;2.28;;;58.80;1.00;;;;;;5046147;28;20196;-75
2022/07/16 08:53:23;;;;;;;3.92;2.08;;;59.00;1.00;;;;;;5047205;28;20214;-76
2022/07/16 08:55:53;;;;;;;3.70;2.20;;;58.60;1.00;;;;;;5046641;28;20238;-75
2022/07/16 08:58:20;;;;;;;5.32;2.63;;;58.60;1.00;;;;;;5039771;28;20755;-75
2022/07/16 09:00:46;;;;;;;4.60;2.33;;;58.80;1.00;;;;;;5044077;28;20227;-75
2022/07/16 09:03:15;;;;;;;4.78;2.60;;;59.10;1.00;;;;;;5047020;28;20207;-75
2022/07/16 09:05:42;;;;;;;3.70;2.33;;;59.00;1.00;;;;;;5043489;28;20227;-76
2022/07/16 09:08:09;;;;;;;4.28;2.35;;;58.60;1.00;;;;;;5043178;28;20205;-75
2022/07/16 09:10:37;;;;;;;4.15;2.58;;;58.30;1.00;;;;;;5038696;28;20200;-76
2022/07/16 09:13:05;;;;;;;4.65;2.55;;;58.20;1.00;;;;;;5045803;28;20630;-76
2022/07/16 09:15:33;;;;;;;4.95;2.30;;;58.50;1.00;;;;;;5046197;28;20641;-75
2022/07/16 09:18:13;;;;;;;3.67;2.10;;;58.80;1.00;;;;;;5046368;28;20215;-75
2022/07/16 09:20:43;;;;;;;5.82;2.97;;;58.80;1.00;;;;;;5044751;28;20590;-75
2022/07/16 09:23:29;;;;;;;4.07;2.40;;;58.80;1.00;;;;;;5052753;28;20215;-75
2022/07/16 09:25:58;;;;;;;4.38;2.20;;;58.70;1.00;;;;;;5044875;28;20712;-75
2022/07/16 09:28:26;;;;;;;6.90;2.17;;;58.50;1.00;;;;;;5046960;28;20316;-76
2022/07/16 09:30:53;;;;;;;3.60;2.30;;;58.50;1.00;;;;;;5051865;28;20691;-75
2022/07/16 09:33:22;;;;;;;4.78;2.83;;;58.40;1.00;;;;;;5057968;28;20203;-75
2022/07/16 09:36:06;;;;;;;3.57;2.30;;;58.50;1.00;;;;;;5039748;28;20226;-75
2022/07/16 09:38:49;;;;;;;4.40;2.00;;;58.10;1.00;;;;;;5051991;28;20293;-76
2022/07/16 09:41:15;;;;;;;6.60;2.10;;;57.40;1.00;;;;;;5051253;28;20225;-75
2022/07/16 09:43:43;;;;;;;5.70;2.20;;;55.30;1.00;;;;;;5069670;28;20976;-75
2022/07/16 09:46:16;;;;;;;6.37;2.17;;;53.00;1.00;;;;;;5052941;28;20477;-76
2022/07/16 09:48:44;;;;;;;4.30;2.30;;;50.60;1.00;;;;;;5041991;28;20546;-75
2022/07/16 09:51:19;;;;;;;5.00;2.60;;;48.50;1.00;;;;;;5049667;28;20461;-75
2022/07/16 09:53:47;;;;;;;4.50;2.20;;;46.50;1.00;;;;;;5050033;28;20468;-75
2022/07/16 09:56:16;;;;;;;4.83;2.50;;;44.80;1.00;;;;;;5049657;28;20486;-75
2022/07/16 09:58:47;;;;;;;4.20;2.50;;;43.20;1.00;;;;;;5047173;28;20462;-74
2022/07/16 10:01:15;;;;;;;6.27;2.40;;;41.90;1.00;;;;;;5046215;28;20982;-74
2022/07/16 10:03:43;;;;;;;5.00;2.60;;;40.80;1.00;;;;;;5049701;28;20747;-75
2022/07/16 10:06:09;;;;;;;4.57;2.20;;;39.70;1.00;;;;;;5043005;28;20489;-75
2022/07/16 10:08:39;;;;;;;4.43;2.50;;;38.80;1.00;;;;;;5046106;28;20488;-75
2022/07/16 10:11:18;;;;;;;6.70;2.50;;;38.00;1.00;;;;;;5045598;28;20461;-74
2022/07/16 10:13:47;;;;;;;4.37;2.33;;;37.10;1.00;;;;;;5049070;28;20462;-74
2022/07/16 10:16:14;;;;;;;7.07;2.87;;;36.30;1.00;;;;;;5048737;28;20477;-74
2022/07/16 10:18:43;;;;;;;5.53;2.60;;;35.60;1.00;;;;;;5048861;28;20540;-74
2022/07/16 10:21:15;;;;;;;7.87;2.43;;;35.10;1.00;;;;;;5046986;28;20855;-74
2022/07/16 10:23:45;;;;;;;6.60;2.60;;;34.60;1.00;;;;;;5050166;28;20516;-74
2022/07/16 10:26:16;;;;;;;5.70;2.47;;;34.10;1.00;;;;;;5049567;28;20492;-74
2022/07/16 10:28:48;;;;;;;8.73;2.70;;;33.70;1.00;;;;;;5049777;28;20473;-74
2022/07/16 10:31:40;;;;;;;5.00;2.23;;;33.30;1.00;;;;;;5047173;28;20478;-74
2022/07/16 10:34:40;;;;;;;5.00;2.33;;;33.10;1.00;;;;;;5049430;28;20443;-74
2022/07/16 10:37:12;;;;;;;4.97;2.20;;;32.80;1.00;;;;;;5048346;28;20934;-74
2022/07/16 10:40:00;;;;;;;9.33;2.60;;;32.60;1.00;;;;;;5047980;28;20457;-74
2022/07/16 10:42:27;;;;;;;6.53;2.53;;;32.30;1.00;;;;;;5047543;28;20493;-74
2022/07/16 10:44:55;;;;;;;5.27;2.13;;;32.10;1.00;;;;;;5048269;28;20539;-74
2022/07/16 10:47:41;;;;;;;6.10;2.87;;;31.80;1.00;;;;;;5048405;28;20910;-74
2022/07/16 10:50:19;;;;;;;5.53;2.60;;;31.60;1.00;;;;;;5049397;28;20464;-74
2022/07/16 10:52:48;;;;;;;5.80;2.10;;;31.40;1.00;;;;;;5048637;28;20458;-74
2022/07/16 10:55:31;;;;;;;4.80;2.60;;;31.30;1.00;;;;;;5048018;28;21048;-74
2022/07/16 10:57:58;;;;;;;6.20;2.60;;;31.00;1.00;;;;;;5049438;28;20915;-74
2022/07/16 11:00:26;;;;;;;6.70;2.40;;;30.90;1.00;;;;;;5048051;28;20488;-74
2022/07/16 11:02:58;;;;;;;7.40;3.00;;;30.70;1.00;;;;;;5047279;28;20959;-74
2022/07/16 11:05:25;;;;;;;6.33;2.60;;;30.60;1.00;;;;;;5047763;28;20482;-74
2022/07/16 11:07:52;;;;;;;4.67;2.30;;;30.50;1.00;;;;;;5048977;28;20466;-74
2022/07/16 11:10:23;;;;;;;5.57;2.93;;;30.40;1.00;;;;;;5048285;28;20947;-75
2022/07/16 11:12:50;;;;;;;5.77;2.30;;;30.40;1.00;;;;;;5046092;28;20466;-74
2022/07/16 11:15:17;;;;;;;5.00;1.87;;;30.20;1.00;;;;;;5048041;28;20478;-74
2022/07/16 11:17:54;;;;;;;5.30;2.40;;;30.10;1.00;;;;;;5048077;28;20464;-74
2022/07/16 11:20:21;;;;;;;4.63;2.20;;;30.00;1.00;;;;;;5047374;28;21048;-74
2022/07/16 11:22:48;;;;;;;5.80;2.77;;;29.90;1.00;;;;;;5047063;28;21024;-74
2022/07/16 11:25:15;;;;;;;4.50;2.30;;;29.90;1.00;;;;;;5047778;28;20585;-74
2022/07/16 11:27:43;;;;;;;5.40;2.43;;;29.80;1.00;;;;;;5047995;28;20462;-74
2022/07/16 11:30:12;;;;;;;5.03;2.40;;;29.70;1.00;;;;;;5048468;28;20826;-74
2022/07/16 11:32:42;;;;;;;5.20;2.60;;;29.70;1.00;;;;;;5047189;28;20569;-74
2022/07/16 11:35:10;;;;;;;4.93;2.60;;;29.60;1.00;;;;;;5047764;28;20478;-74
2022/07/16 11:37:48;;;;;;;9.60;3.47;;;29.50;1.00;;;;;;5047729;28;20454;-74
2022/07/16 11:40:15;;;;;;;5.23;2.87;;;29.50;1.00;;;;;;5047242;28;20580;-74
2022/07/16 11:42:43;;;;;;;5.00;2.63;;;29.40;1.00;;;;;;5048503;28;20603;-73
2022/07/16 11:45:12;;;;;;;6.73;2.73;;;29.30;1.00;;;;;;5045470;28;20515;-73
2022/07/16 11:47:39;;;;;;;7.00;2.47;;;29.20;1.00;;;;;;5048298;28;20555;-73
2022/07/16 11:50:06;;;;;;;6.43;2.07;;;29.20;1.00;;;;;;5048280;28;20454;-74
2022/07/16 11:52:33;;;;;;;5.03;2.03;;;29.10;1.00;;;;;;5047822;28;20954;-73
2022/07/16 11:55:00;;;;;;;5.10;2.80;;;29.00;1.00;;;;;;5046025;28;20841;-73
2022/07/16 11:57:27;;;;;;;8.47;2.90;;;28.90;1.00;;;;;;5048310;28;20545;-73
2022/07/16 11:59:56;;;;;;;7.80;3.03;;;28.90;1.00;;;;;;5046936;28;20461;-73
2022/07/16 12:02:27;;;;;;;5.97;2.50;;;28.80;1.00;;;;;;5047340;28;20470;-73
2022/07/16 12:04:57;;;;;;;6.30;2.90;;;28.80;1.00;;;;;;5046322;28;20496;-73
2022/07/16 12:07:33;;;;;;;6.23;2.63;;;28.80;1.00;;;;;;5047382;28;20969;-73
2022/07/16 12:10:01;;;;;;;7.30;2.80;;;28.70;1.00;;;;;;5047602;28;20454;-75
2022/07/16 12:12:29;;;;;;;5.80;2.83;;;28.70;1.00;;;;;;5047972;28;20554;-73
2022/07/16 12:14:59;;;;;;;6.50;3.00;;;28.60;1.00;;;;;;5045427;28;20481;-73
2022/07/16 12:17:28;;;;;;;5.73;2.90;;;28.50;1.00;;;;;;5046944;28;20486;-73
2022/07/16 12:20:17;;;;;;;6.23;2.90;;;28.40;1.00;;;;;;5047982;28;20462;-75
2022/07/16 12:22:53;;;;;;;4.93;2.50;;;28.40;1.00;;;;;;5047087;28;20988;-73
2022/07/16 12:25:22;;;;;;;5.03;3.17;;;28.40;1.00;;;;;;5045957;28;20481;-73
2022/07/16 12:27:51;;;;;;;6.07;2.63;;;28.40;1.00;;;;;;5047635;28;20841;-73
2022/07/16 12:30:20;;;;;;;5.87;2.90;;;28.30;1.00;;;;;;5046718;28;20454;-73
2022/07/16 12:32:52;;;;;;;5.90;2.83;;;28.20;1.00;;;;;;5047194;28;20457;-74
2022/07/16 12:35:43;;;;;;;7.13;3.27;;;28.20;1.00;;;;;;5046363;28;20489;-73
2022/07/16 12:38:30;;;;;;;6.50;3.10;;;28.20;1.00;;;;;;5027055;28;20443;-74
2022/07/16 12:40:57;;;;;;;7.60;2.90;;;28.10;1.00;;;;;;5026368;28;20843;-74
2022/07/16 12:43:24;;;;;;;5.83;2.60;;;28.10;1.00;;;;;;5027006;28;20466;-73
2022/07/16 12:45:53;;;;;;;6.23;2.80;;;28.00;1.00;;;;;;5025982;28;20991;-73
2022/07/16 12:48:19;;;;;;;5.10;2.50;;;28.00;1.00;;;;;;5044754;28;20467;-74
2022/07/16 12:50:46;;;;;;;9.93;3.30;;;28.00;1.00;;;;;;5046888;28;20461;-75
2022/07/16 12:53:13;;;;;;;6.70;2.37;;;28.00;1.00;;;;;;5046862;28;20807;-74
2022/07/16 13:01:10;;;;;;;4.57;2.90;;;28.00;1.00;;;;;;5046851;28;20622;-75
2022/07/16 13:03:37;;;;;;;5.20;3.00;;;28.00;1.00;;;;;;5046929;28;20480;-75
2022/07/16 13:06:04;;;;;;;6.30;2.97;;;28.00;1.00;;;;;;5048264;28;20486;-75
2022/07/16 13:08:31;;;;;;;7.90;3.10;;;27.90;1.00;;;;;;5049457;28;20469;-74
2022/07/16 13:10:58;;;;;;;5.43;2.73;;;27.90;1.00;;;;;;5049019;28;20537;-74
2022/07/16 13:13:25;;;;;;;5.10;2.70;;;27.90;1.00;;;;;;5050773;28;20581;-75